Time;durP1;ratioP1;P1;durP2;ratioP2;P2;SDS_P1;SDS_P2;PMS_P1;PMS_P2;Temp;Humidity;BMP_temperature;BMP_pressure;BME280_temperature;BME280_humidity;BME280_pressure;Samples;Min_cycle;Max_cycle;Signal;HPM_P1;HPM_P2
2022/12/03 07:34:49;;;;;;;97.93;69.47;;;;;;;17.24;43.16;101387.19;4535879;27;15798809;-48
2022/12/03 07:37:17;;;;;;;94.40;65.93;;;;;;;18.30;40.63;101377.28;5090662;28;20331;-48
2022/12/03 07:39:46;;;;;;;80.95;58.85;;;;;;;19.09;38.82;101373.69;5090809;28;20033;-45
2022/12/03 07:42:14;;;;;;;84.95;56.60;;;;;;;19.70;37.56;101371.69;5090226;28;20035;-50
2022/12/03 07:44:43;;;;;;;73.20;50.63;;;;;;;20.05;36.69;101371.22;5090584;28;20480;-51
2022/12/03 07:47:11;;;;;;;69.63;48.85;;;;;;;20.30;36.16;101365.16;5090410;28;20097;-46
2022/12/03 07:49:40;;;;;;;71.13;46.90;;;;;;;20.52;35.64;101365.91;5090174;28;20032;-47
2022/12/03 07:52:08;;;;;;;63.20;45.33;;;;;;;20.66;35.50;101361.16;5090321;28;20103;-47
2022/12/03 07:54:37;;;;;;;61.22;43.20;;;;;;;20.72;35.46;101361.34;5089936;28;20414;-50
2022/12/03 07:57:06;;;;;;;57.40;40.58;;;;;;;20.84;35.48;101365.25;5090313;28;20032;-46
2022/12/03 07:59:33;;;;;;;55.08;39.67;;;;;;;20.90;35.04;101361.09;5090180;28;20481;-51
2022/12/03 08:02:02;;;;;;;53.67;35.67;;;;;;;20.90;35.42;101358.50;5090115;28;20032;-45
2022/12/03 08:04:31;;;;;;;45.45;33.25;;;;;;;20.96;34.96;101355.19;5090122;28;20040;-46
2022/12/03 08:06:59;;;;;;;48.70;33.80;;;;;;;20.98;34.88;101339.59;5088636;28;20123;-50
2022/12/03 08:09:28;;;;;;;45.30;31.35;;;;;;;21.01;34.94;101356.25;5090193;28;20461;-47
2022/12/03 08:11:55;;;;;;;46.17;30.05;;;;;;;21.09;35.18;101357.34;5089934;28;20032;-52
2022/12/03 08:14:24;;;;;;;43.53;30.33;;;;;;;21.12;34.94;101358.28;5088623;28;20115;-45
2022/12/03 08:16:53;;;;;;;37.58;27.15;;;;;;;21.11;35.23;101346.94;5089957;28;20492;-45
2022/12/03 08:19:21;;;;;;;36.42;26.63;;;;;;;21.20;35.17;101354.19;5089670;28;20107;-45
2022/12/03 08:21:50;;;;;;;36.72;25.45;;;;;;;21.21;34.80;101351.63;5088017;28;20028;-47
2022/12/03 08:24:20;;;;;;;34.15;24.25;;;;;;;21.23;34.78;101354.28;5089813;28;20016;-50
2022/12/03 08:26:50;;;;;;;31.42;22.98;;;;;;;21.24;34.89;101351.72;5089527;28;20459;-48
2022/12/03 08:29:20;;;;;;;31.35;21.42;;;;;;;21.31;34.86;101363.25;5089807;28;20020;-53
2022/12/03 08:31:53;;;;;;;32.17;23.40;;;;;;;21.33;34.64;101353.75;5089563;28;20028;-46
2022/12/03 08:34:24;;;;;;;33.08;22.15;;;;;;;21.30;34.60;101353.66;5089217;28;20048;-50
2022/12/03 08:37:02;;;;;;;29.10;20.27;;;;;;;21.32;34.71;101358.91;5087718;28;20382;-45
2022/12/03 08:39:34;;;;;;;31.63;19.48;;;;;;;21.34;34.69;101334.63;5089369;28;20025;-47
2022/12/03 08:42:50;;;;;;;27.25;19.33;;;;;;;21.34;34.56;101320.69;5087925;28;20145;-49
2022/12/03 08:44:56;;;;;;;22.58;16.88;;;;;;;21.36;34.75;101324.22;5058813;28;20037;-49
2022/12/03 08:47:25;;;;;;;23.83;17.00;;;;;;;21.47;34.68;101332.38;5037249;28;20126;-45
2022/12/03 08:50:02;;;;;;;25.08;16.98;;;;;;;21.42;34.66;101329.66;5037276;28;20064;-47
2022/12/03 08:52:33;;;;;;;22.92;15.95;;;;;;;21.38;34.54;101328.66;5037191;28;20126;-45
2022/12/03 08:55:29;;;;;;;31.83;15.75;;;;;;;21.38;34.73;101335.59;5053665;28;20073;-45
2022/12/03 08:57:58;;;;;;;20.70;14.65;;;;;;;21.42;34.58;101331.34;5053563;28;20036;-48
2022/12/03 09:00:26;;;;;;;19.65;13.55;;;;;;;21.41;34.86;101327.88;5036550;28;20072;-45
2022/12/03 09:02:58;;;;;;;23.58;12.80;;;;;;;21.39;34.69;101314.75;5036792;28;20029;-50
2022/12/03 09:05:31;;;;;;;20.00;11.90;;;;;;;21.47;34.66;101329.78;5036783;28;20044;-45
2022/12/03 09:07:59;;;;;;;15.93;10.15;;;;;;;21.51;34.66;101319.47;5053696;28;20025;-50
2022/12/03 09:10:28;;;;;;;15.40;11.15;;;;;;;21.52;34.52;101321.22;5053410;28;20091;-52
2022/12/03 09:12:57;;;;;;;15.20;11.32;;;;;;;21.51;34.36;101322.06;5053264;28;20037;-52
2022/12/03 09:15:25;;;;;;;15.07;11.23;;;;;;;21.48;34.71;101326.31;5059566;28;20444;-49
2022/12/03 09:17:54;;;;;;;15.68;10.20;;;;;;;21.57;34.43;101325.69;5074001;28;20461;-44
2022/12/03 09:20:21;;;;;;;12.95;9.32;;;;;;;21.58;34.67;101324.88;5075384;28;20040;-49
2022/12/03 09:22:50;;;;;;;12.30;9.13;;;;;;;21.60;34.46;101325.75;5073851;28;20455;-48
2022/12/03 09:25:19;;;;;;;12.48;8.45;;;;;;;21.61;34.52;101319.75;5074616;28;20028;-47
2022/12/03 09:27:47;;;;;;;17.88;12.77;;;;;;;21.63;34.29;101321.56;5075130;28;20031;-45
2022/12/03 09:30:16;;;;;;;17.45;11.15;;;;;;;21.63;34.23;101315.44;5073774;28;20035;-45
2022/12/03 09:32:45;;;;;;;14.52;10.45;;;;;;;21.74;33.92;101311.44;5074755;28;20056;-50
2022/12/03 09:35:13;;;;;;;13.95;9.90;;;;;;;21.68;33.98;101312.13;5074917;28;20028;-50
2022/12/03 09:37:42;;;;;;;18.17;9.88;;;;;;;21.64;34.40;101305.06;5074657;28;20393;-49
2022/12/03 09:40:11;;;;;;;13.80;9.45;;;;;;;21.63;34.21;101302.41;5074701;28;20035;-46
2022/12/03 09:42:40;;;;;;;83.93;56.55;;;;;;;21.65;34.23;101303.31;5073728;28;20032;-47
2022/12/03 09:45:11;;;;;;;58.08;38.95;;;;;;;21.67;34.31;101299.94;5073894;28;20029;-48
2022/12/03 09:47:41;;;;;;;54.20;35.63;;;;;;;21.65;34.21;101299.00;5073213;28;20362;-49
2022/12/03 09:50:14;;;;;;;42.13;28.90;;;;;;;21.61;34.39;101293.63;5073372;28;20492;-49
2022/12/03 09:52:44;;;;;;;37.40;27.10;;;;;;;21.69;34.64;101294.75;5073042;28;20382;-46
2022/12/03 09:55:18;;;;;;;38.15;25.98;;;;;;;21.67;34.22;101297.34;5074630;28;20024;-50
2022/12/03 09:57:46;;;;;;;33.58;23.60;;;;;;;21.70;34.46;101296.53;5073575;28;20036;-50
2022/12/03 10:00:18;;;;;;;35.38;22.52;;;;;;;21.73;34.36;101303.53;5074289;28;20032;-49
2022/12/03 10:02:48;;;;;;;36.33;25.23;;;;;;;21.76;34.12;101301.03;5074282;28;20029;-50
2022/12/03 10:05:16;;;;;;;38.53;24.52;;;;;;;21.52;34.22;101257.69;5074283;28;20031;-50
2022/12/03 10:07:45;;;;;;;35.95;24.75;;;;;;;21.77;34.09;101294.97;5074258;28;20035;-50
2022/12/03 10:10:24;;;;;;;33.30;23.67;;;;;;;21.77;34.21;101292.34;5074114;28;20103;-48
2022/12/03 10:12:53;;;;;;;35.20;23.77;;;;;;;21.81;33.96;101282.03;5073764;28;20021;-45
2022/12/03 10:15:24;;;;;;;37.17;22.60;;;;;;;21.84;34.01;101296.91;5073831;28;20023;-45
2022/12/03 10:17:54;;;;;;;29.48;21.73;;;;;;;21.82;34.13;101290.75;5074184;28;20017;-49
2022/12/03 10:20:24;;;;;;;34.83;23.67;;;;;;;21.91;34.46;101291.00;5074138;28;20025;-50
2022/12/03 10:22:52;;;;;;;32.38;21.98;;;;;;;21.92;34.18;101292.75;5072516;28;20028;-51
2022/12/03 10:25:22;;;;;;;36.42;26.15;;;;;;;21.91;33.98;101292.72;5073626;28;20032;-44
2022/12/03 10:28:01;;;;;;;38.78;28.02;;;;;;;21.87;34.17;101296.09;5070603;28;20035;-45
2022/12/03 10:30:29;;;;;;;43.28;31.23;;;;;;;21.83;34.26;101285.56;5068566;28;20484;-49
2022/12/03 10:32:57;;;;;;;45.53;33.85;;;;;;;21.88;34.30;101282.19;5072657;28;20094;-49
2022/12/03 10:35:37;;;;;;;50.53;33.70;;;;;;;21.83;34.09;101271.63;5071625;28;20119;-45
2022/12/03 10:38:07;;;;;;;46.08;34.38;;;;;;;21.84;34.36;101286.47;5072696;28;20029;-46
2022/12/03 10:40:38;;;;;;;53.45;39.58;;;;;;;21.91;34.44;101279.66;5071843;28;20061;-47
2022/12/03 10:43:19;;;;;;;58.85;43.17;;;;;;;21.96;34.22;101276.34;5072203;28;20099;-46
2022/12/03 10:46:11;;;;;;;63.50;45.92;;;;;;;21.93;34.48;101285.78;5072783;28;20048;-45
2022/12/03 10:48:39;;;;;;;66.38;48.80;;;;;;;22.00;34.04;101272.06;5068090;28;20040;-47
2022/12/03 10:51:15;;;;;;;68.35;49.50;;;;;;;21.98;34.09;101268.53;5069896;28;20028;-51
2022/12/03 10:53:43;;;;;;;66.20;49.40;;;;;;;22.06;33.86;101271.34;5072432;28;20028;-49
2022/12/03 10:56:25;;;;;;;68.75;51.05;;;;;;;22.07;33.65;101274.00;5072649;28;20538;-51
2022/12/03 10:58:53;;;;;;;74.25;54.35;;;;;;;22.04;33.78;101268.69;5072885;28;20031;-51
2022/12/03 11:01:23;;;;;;;82.20;60.60;;;;;;;22.03;33.97;101264.31;5070967;28;20029;-50
2022/12/03 11:03:52;;;;;;;84.00;60.65;;;;;;;22.05;33.83;101256.50;5071885;28;20025;-51
2022/12/03 11:06:21;;;;;;;82.30;62.05;;;;;;;22.10;33.75;101262.75;5072498;28;20036;-52
2022/12/03 11:08:52;;;;;;;81.85;62.17;;;;;;;22.07;33.81;101266.16;5070871;28;21157;-51
2022/12/03 11:11:25;;;;;;;84.22;64.90;;;;;;;22.09;33.70;101261.84;5069922;28;20047;-46
2022/12/03 11:13:55;;;;;;;97.05;71.25;;;;;;;22.14;33.90;101254.16;5071652;28;20032;-52
2022/12/03 11:16:42;;;;;;;91.85;66.97;;;;;;;22.12;33.73;101248.84;5072446;28;20055;-49
2022/12/03 11:19:29;;;;;;;90.50;69.18;;;;;;;22.17;33.39;101243.78;5065786;28;20037;-53
2022/12/03 11:22:10;;;;;;;88.95;66.10;;;;;;;22.18;33.57;101239.41;5071235;28;20078;-46
2022/12/03 11:24:39;;;;;;;88.45;67.93;;;;;;;22.13;33.66;101228.84;5069720;28;20054;-52
2022/12/03 11:27:15;;;;;;;90.88;67.15;;;;;;;22.13;33.86;101231.47;5072428;28;20025;-53
2022/12/03 11:29:50;;;;;;;90.53;67.57;;;;;;;22.15;33.55;101224.56;5072277;28;20074;-49
2022/12/03 11:32:38;;;;;;;88.85;66.57;;;;;;;22.10;33.90;101221.81;5071128;28;20435;-47
2022/12/03 11:35:16;;;;;;;83.32;64.88;;;;;;;22.20;33.56;101212.47;5068716;28;20044;-46
2022/12/03 11:37:44;;;;;;;81.65;63.13;;;;;;;22.20;33.73;101211.59;5070481;28;20497;-46
2022/12/03 11:40:20;;;;;;;84.25;63.58;;;;;;;22.19;33.62;101215.06;5072078;28;20060;-48
2022/12/03 11:42:49;;;;;;;85.22;61.35;;;;;;;22.21;33.39;101206.41;5071232;28;20039;-46
2022/12/03 11:45:23;;;;;;;81.22;61.35;;;;;;;22.22;33.28;101205.56;5071826;28;20358;-49
2022/12/03 11:48:02;;;;;;;80.25;59.00;;;;;;;22.19;33.50;101208.09;5070545;28;20470;-46
2022/12/03 11:50:34;;;;;;;80.15;60.83;;;;;;;22.20;33.66;101204.63;5053675;28;20397;-46
2022/12/03 11:53:22;;;;;;;75.60;56.90;;;;;;;22.21;33.77;101201.16;5071371;28;20033;-51
2022/12/03 11:56:05;;;;;;;73.20;54.17;;;;;;;22.25;33.77;101197.78;5069913;28;20028;-46
2022/12/03 11:58:33;;;;;;;66.70;50.65;;;;;;;22.23;33.70;101196.88;5071403;28;20037;-46
2022/12/03 12:01:03;;;;;;;67.72;50.60;;;;;;;22.25;33.64;101191.69;5071585;28;20453;-46
2022/12/03 12:03:35;;;;;;;63.05;46.38;;;;;;;22.25;33.39;101192.56;5070901;28;20074;-51
2022/12/03 12:06:10;;;;;;;62.03;45.63;;;;;;;22.28;33.38;101194.34;5071946;28;20157;-50
2022/12/03 12:08:42;;;;;;;58.38;42.10;;;;;;;22.27;33.67;101192.59;5067315;28;20029;-46
2022/12/03 12:11:20;;;;;;;52.15;39.40;;;;;;;22.31;33.19;101202.28;5066534;28;20469;-52
2022/12/03 12:13:51;;;;;;;55.08;37.70;;;;;;;22.29;33.64;101189.19;5068713;28;20119;-50
2022/12/03 12:16:39;;;;;;;52.92;37.97;;;;;;;22.24;33.70;101190.78;5071556;28;20029;-45
2022/12/03 12:19:37;;;;;;;46.50;34.25;;;;;;;22.17;33.50;101178.44;5064902;28;20041;-48
2022/12/03 12:22:24;;;;;;;44.10;32.28;;;;;;;22.26;33.25;101180.38;5071210;28;20050;-45
2022/12/03 12:24:58;;;;;;;40.45;30.73;;;;;;;22.24;33.66;101182.97;5072595;28;20025;-45
2022/12/03 12:27:46;;;;;;;41.88;30.58;;;;;;;22.24;33.50;101169.03;5074102;28;20031;-51
2022/12/03 12:30:16;;;;;;;40.35;28.63;;;;;;;22.26;33.39;101170.81;5071825;28;20029;-52
2022/12/03 12:33:21;;;;;;;37.90;27.98;;;;;;;22.32;33.60;101164.84;5070727;28;20497;-50
2022/12/03 12:35:50;;;;;;;32.90;25.10;;;;;;;22.33;33.71;101164.00;5071301;28;20035;-52
2022/12/03 12:38:20;;;;;;;34.38;25.08;;;;;;;22.28;33.52;101166.50;5075320;28;20020;-48
2022/12/03 12:40:49;;;;;;;35.63;24.90;;;;;;;22.40;33.44;101157.19;5074997;28;20031;-49
2022/12/03 12:43:29;;;;;;;32.08;22.83;;;;;;;22.36;33.28;101151.00;5074652;28;20541;-49
2022/12/03 12:46:01;;;;;;;28.05;20.95;;;;;;;22.33;33.79;101147.44;5070813;28;20031;-50
2022/12/03 12:48:33;;;;;;;29.58;20.90;;;;;;;22.38;33.11;101143.19;5073619;28;20366;-45
2022/12/03 12:51:08;;;;;;;27.02;19.85;;;;;;;22.33;33.35;101145.69;5073250;28;20525;-53
2022/12/03 12:53:37;;;;;;;28.27;18.88;;;;;;;22.38;33.60;101141.47;5073472;28;20449;-46
2022/12/03 12:56:26;;;;;;;27.40;19.67;;;;;;;22.40;33.36;101145.00;5074447;28;20875;-46
2022/12/03 12:58:54;;;;;;;26.48;18.42;;;;;;;22.44;33.10;101143.38;5072347;28;20483;-45
2022/12/03 13:01:28;;;;;;;26.88;17.90;;;;;;;22.35;33.11;101136.16;5073831;28;20469;-51
2022/12/03 13:03:55;;;;;;;21.98;16.27;;;;;;;22.44;33.37;101141.63;5073910;28;20037;-45
2022/12/03 13:06:27;;;;;;;21.95;15.85;;;;;;;22.44;33.35;101143.38;5074017;28;20047;-46
2022/12/03 13:08:56;;;;;;;20.70;15.65;;;;;;;22.43;33.30;101132.00;5074672;28;20374;-48
2022/12/03 13:11:37;;;;;;;19.55;13.73;;;;;;;22.37;33.39;101126.63;5075162;28;20025;-51
2022/12/03 13:14:24;;;;;;;19.45;13.48;;;;;;;22.35;33.52;101116.97;5073543;28;20439;-48
2022/12/03 13:16:54;;;;;;;19.63;13.63;;;;;;;22.38;33.64;101110.09;5074472;28;20016;-48
2022/12/03 13:19:25;;;;;;;19.73;13.63;;;;;;;22.40;33.71;101107.50;5075110;28;20086;-51
2022/12/03 13:21:56;;;;;;;18.00;12.40;;;;;;;22.44;33.49;101112.88;5075152;28;20474;-45
2022/12/03 13:24:38;;;;;;;17.20;11.95;;;;;;;22.51;33.82;101102.56;5074958;28;20071;-50
2022/12/03 13:27:28;;;;;;;14.52;10.18;;;;;;;22.52;33.44;101105.19;5074999;28;20021;-53
2022/12/03 13:30:16;;;;;;;15.57;11.00;;;;;;;22.49;33.69;101112.09;5075209;28;20100;-52
2022/12/03 13:32:44;;;;;;;14.00;10.13;;;;;;;22.54;33.82;101106.09;5066168;28;20036;-52
2022/12/03 13:35:16;;;;;;;11.60;8.95;;;;;;;22.57;33.44;101103.56;5074898;28;20120;-45
2022/12/03 13:37:45;;;;;;;13.32;8.43;;;;;;;22.55;33.77;101100.03;5074035;28;20056;-47
2022/12/03 13:40:36;;;;;;;10.95;8.18;;;;;;;22.60;33.51;101093.19;5075072;28;20024;-47
2022/12/03 13:43:10;;;;;;;12.88;7.95;;;;;;;22.60;33.67;101103.63;5074590;28;20040;-45
2022/12/03 13:45:41;;;;;;;10.40;7.95;;;;;;;22.60;33.26;101098.41;5073021;28;20436;-45
2022/12/03 13:48:29;;;;;;;13.13;7.88;;;;;;;22.60;33.78;101097.50;5074392;28;20490;-53
2022/12/03 13:51:00;;;;;;;10.05;7.00;;;;;;;22.65;33.80;101095.00;5069652;28;20047;-49
2022/12/03 13:53:32;;;;;;;10.10;6.85;;;;;;;22.65;33.85;101092.41;5072752;28;20393;-49
2022/12/03 13:56:19;;;;;;;11.27;6.53;;;;;;;22.73;33.40;101082.94;5074780;28;20477;-45
2022/12/03 13:58:48;;;;;;;8.90;6.38;;;;;;;22.72;33.63;101079.47;5073326;28;20024;-51
2022/12/03 14:01:16;;;;;;;10.00;5.95;;;;;;;22.69;33.50;101081.13;5074476;28;20552;-52
2022/12/03 14:03:44;;;;;;;11.65;5.85;;;;;;;22.68;33.65;101084.59;5074226;28;20082;-53
2022/12/03 14:06:13;;;;;;;7.85;5.22;;;;;;;22.76;33.65;101085.63;5074141;28;20028;-53
2022/12/03 14:08:41;;;;;;;6.97;5.18;;;;;;;22.68;33.62;101079.34;5073768;28;20032;-53
2022/12/03 14:12:24;;;;;;;7.72;5.43;;;;;;;22.70;33.46;101081.16;5074229;28;20024;-50
2022/12/03 14:13:57;;;;;;;7.85;5.07;;;;;;;22.73;33.71;101082.94;5073687;28;20465;-45
2022/12/03 14:16:26;;;;;;;7.90;4.95;;;;;;;22.77;33.42;101076.94;5072859;28;20519;-51
2022/12/03 14:18:54;;;;;;;7.40;5.10;;;;;;;22.79;33.66;101074.34;5074032;28;20033;-45
2022/12/03 14:21:23;;;;;;;7.38;4.90;;;;;;;22.75;33.57;101066.44;5073443;28;20032;-51
2022/12/03 14:23:50;;;;;;;6.07;4.60;;;;;;;22.75;33.48;101076.03;5074254;28;20024;-52
2022/12/03 14:26:19;;;;;;;6.50;4.05;;;;;;;22.72;33.52;101076.84;5074137;28;20020;-45
2022/12/03 14:28:47;;;;;;;5.65;4.20;;;;;;;22.76;33.64;101070.81;5073615;28;20385;-51
2022/12/03 14:31:18;;;;;;;7.50;4.63;;;;;;;22.77;33.53;101082.16;5071498;28;20112;-45
2022/12/03 14:33:45;;;;;;;4.82;3.50;;;;;;;22.76;33.15;101083.88;5071410;28;20092;-47
2022/12/03 14:36:13;;;;;;;5.10;3.85;;;;;;;22.71;33.15;101075.09;5072637;28;20033;-49
2022/12/03 14:38:41;;;;;;;4.75;3.28;;;;;;;22.71;33.58;101082.94;5072933;28;20024;-50
2022/12/03 14:42:11;;;;;;;5.30;3.55;;;;;;;22.69;33.38;101083.75;5071993;28;20066;-51
2022/12/03 14:43:55;;;;;;;6.00;3.67;;;;;;;22.73;33.53;101072.50;5068564;28;20043;-51
2022/12/03 14:46:24;;;;;;;4.60;3.28;;;;;;;22.78;33.22;101076.09;5072371;28;20020;-52
2022/12/03 14:48:52;;;;;;;5.80;3.45;;;;;;;22.72;33.65;101082.09;5072630;28;20021;-46
2022/12/03 14:51:20;;;;;;;5.10;3.17;;;;;;;22.73;33.40;101075.09;5071732;28;20345;-45
2022/12/03 14:53:47;;;;;;;8.02;3.83;;;;;;;22.79;33.15;101082.19;5072380;28;20487;-48
2022/12/03 14:56:16;;;;;;;4.45;3.22;;;;;;;22.75;33.22;101076.88;5072219;28;20032;-53
2022/12/03 14:58:43;;;;;;;3.42;2.70;;;;;;;22.83;33.35;101089.25;5072695;28;20097;-46
2022/12/03 15:01:10;;;;;;;4.47;2.88;;;;;;;22.76;33.22;101086.50;5071712;28;20055;-49
2022/12/03 15:03:39;;;;;;;4.03;2.80;;;;;;;22.70;33.25;101089.03;5072438;28;20028;-45
2022/12/03 15:06:06;;;;;;;4.28;2.95;;;;;;;22.69;33.71;101078.50;5072722;28;20029;-53
2022/12/03 15:08:34;;;;;;;4.63;3.15;;;;;;;22.68;33.70;101077.63;5072031;28;20043;-52
2022/12/03 15:11:01;;;;;;;4.60;2.92;;;;;;;22.68;33.56;101077.63;5071773;28;20024;-49
2022/12/03 15:13:28;;;;;;;7.65;3.20;;;;;;;22.66;33.70;101081.09;5072443;28;20134;-47
2022/12/03 15:15:55;;;;;;;4.53;3.35;;;;;;;22.61;33.05;101074.03;5072441;28;20385;-46
2022/12/03 15:18:23;;;;;;;5.63;3.28;;;;;;;22.62;33.41;101077.50;5071921;28;20038;-52
2022/12/03 15:20:51;;;;;;;4.60;3.10;;;;;;;22.63;33.73;101076.66;5071537;28;20111;-47
2022/12/03 15:23:20;;;;;;;5.70;3.08;;;;;;;22.68;33.27;101079.34;5070870;28;20071;-53
2022/12/03 15:25:50;;;;;;;8.90;5.90;;;;;;;22.71;33.55;101072.47;5072290;28;20111;-50
2022/12/03 15:28:18;;;;;;;12.80;9.90;;;;;;;22.66;33.11;101076.72;5070947;28;20035;-53
2022/12/03 15:30:46;;;;;;;17.45;12.82;;;;;;;22.69;33.02;101075.88;5071961;28;20025;-54
2022/12/03 15:33:13;;;;;;;18.15;12.20;;;;;;;22.70;33.55;101078.56;5070275;28;20041;-52
2022/12/03 15:35:41;;;;;;;14.05;10.98;;;;;;;22.75;33.12;101083.88;5072084;28;20086;-54
2022/12/03 15:38:10;;;;;;;14.23;10.90;;;;;;;22.76;33.46;101075.19;5071650;28;20036;-49
2022/12/03 15:40:39;;;;;;;16.65;10.57;;;;;;;22.75;33.22;101068.19;5070397;28;20059;-51
2022/12/03 15:43:08;;;;;;;14.00;9.48;;;;;;;22.76;32.95;101070.81;5071848;28;20032;-51
2022/12/03 15:45:36;;;;;;;12.70;9.18;;;;;;;22.80;33.28;101069.16;5068275;28;20441;-53
2022/12/03 15:48:04;;;;;;;12.30;9.15;;;;;;;22.83;32.82;101069.22;5071790;28;20475;-50
2022/12/03 15:50:52;;;;;;;11.68;8.65;;;;;;;22.86;32.93;101069.25;5071773;28;20115;-53
2022/12/03 15:53:19;;;;;;;10.25;7.97;;;;;;;22.94;32.84;101063.31;5069881;28;20400;-46
2022/12/03 15:55:48;;;;;;;9.98;7.63;;;;;;;22.85;32.61;101041.34;5074613;28;20029;-53
2022/12/03 15:58:16;;;;;;;8.75;7.22;;;;;;;22.96;32.63;101057.25;5075726;28;20107;-48
2022/12/03 16:00:45;;;;;;;9.13;6.88;;;;;;;23.00;32.56;101064.31;5075354;28;20024;-52
2022/12/03 16:03:12;;;;;;;11.13;7.22;;;;;;;23.03;32.27;101056.50;5075022;28;20024;-46
2022/12/03 16:05:40;;;;;;;11.45;6.72;;;;;;;23.05;32.27;101056.53;5076161;28;20390;-49
2022/12/03 16:08:08;;;;;;;12.13;7.65;;;;;;;23.05;32.57;101059.16;5071534;28;20093;-48
2022/12/03 16:10:36;;;;;;;9.63;7.22;;;;;;;23.01;32.59;101066.06;5073334;28;20024;-45
2022/12/03 16:13:04;;;;;;;10.57;7.82;;;;;;;23.00;32.46;101066.06;5075266;28;20518;-48
2022/12/03 16:15:33;;;;;;;9.40;7.43;;;;;;;23.03;32.49;101068.69;5075647;28;20032;-48
2022/12/03 16:18:02;;;;;;;12.45;7.68;;;;;;;23.01;32.40;101055.59;5074994;28;20097;-51
2022/12/03 16:20:29;;;;;;;9.63;6.25;;;;;;;23.04;32.86;101065.22;5074669;28;20032;-46
2022/12/03 16:22:57;;;;;;;13.68;7.05;;;;;;;23.04;32.73;101066.13;5075054;28;20032;-45
2022/12/03 16:25:24;;;;;;;12.38;6.90;;;;;;;22.99;32.72;101048.59;5075104;28;20035;-51
2022/12/03 16:27:53;;;;;;;8.63;5.57;;;;;;;23.05;32.78;101054.81;5075381;28;20028;-46
2022/12/03 16:30:20;;;;;;;10.43;6.07;;;;;;;23.11;32.56;101055.75;5074451;28;20378;-53
2022/12/03 16:32:49;;;;;;;6.95;5.80;;;;;;;23.14;32.32;101048.88;5073445;28;20082;-47
2022/12/03 16:35:16;;;;;;;8.25;5.75;;;;;;;23.24;32.42;101054.28;5075209;28;20029;-53
2022/12/03 16:37:44;;;;;;;9.65;5.78;;;;;;;23.23;32.09;101053.41;5075601;28;20107;-51
2022/12/03 16:40:13;;;;;;;10.82;5.32;;;;;;;23.18;32.29;101055.03;5074721;28;20032;-46
2022/12/03 16:42:41;;;;;;;6.80;4.95;;;;;;;23.19;32.49;101046.31;5073396;28;20032;-46
2022/12/03 16:47:36;;;;;;;8.05;5.82;;;;;;;23.23;32.41;101053.41;5075538;28;20032;-47
2022/12/03 16:50:07;;;;;;;7.82;5.28;;;;;;;23.23;32.39;101044.66;5074369;28;20130;-52
2022/12/03 16:52:36;;;;;;;7.47;5.68;;;;;;;23.27;32.10;101051.72;5074534;28;20024;-46
2022/12/03 16:55:03;;;;;;;5.75;4.43;;;;;;;23.23;32.41;101048.19;5074733;28;20078;-46
2022/12/03 16:57:30;;;;;;;6.45;4.57;;;;;;;23.20;32.28;101049.00;5074576;28;20028;-49
2022/12/03 16:59:58;;;;;;;5.45;4.45;;;;;;;23.14;32.16;101046.25;5074729;28;20033;-50
2022/12/03 17:02:27;;;;;;;6.63;4.63;;;;;;;23.14;32.45;101050.59;5073870;28;20028;-50
2022/12/03 17:05:14;;;;;;;7.43;5.07;;;;;;;23.12;32.52;101050.56;5073176;28;20033;-46
2022/12/03 17:07:41;;;;;;;8.68;4.50;;;;;;;23.18;32.38;101050.66;5074500;28;20016;-46
2022/12/03 17:10:08;;;;;;;5.63;4.38;;;;;;;23.20;32.60;101048.09;5074179;28;20087;-46
2022/12/03 17:12:36;;;;;;;6.93;4.78;;;;;;;23.25;32.24;101045.56;5073709;28;20024;-52
2022/12/03 17:15:03;;;;;;;5.13;4.25;;;;;;;23.29;32.45;101047.41;5074249;28;20016;-51
2022/12/03 17:17:30;;;;;;;147.63;104.70;;;;;;;23.17;32.30;101027.97;5074257;28;20036;-51
2022/12/03 17:19:58;;;;;;;87.55;60.65;;;;;;;23.32;32.30;101040.47;5074113;28;20035;-47
2022/12/03 17:22:26;;;;;;;78.53;57.25;;;;;;;23.34;31.84;101045.72;5073480;28;20388;-49
2022/12/03 17:24:54;;;;;;;73.22;51.05;;;;;;;23.34;31.98;101041.38;5073804;28;20063;-50
2022/12/03 17:27:23;;;;;;;69.55;46.97;;;;;;;23.29;32.14;101035.19;5070510;28;20029;-51
2022/12/03 17:29:52;;;;;;;58.67;41.88;;;;;;;23.32;32.08;101037.84;5074281;28;20085;-53
2022/12/03 17:32:20;;;;;;;55.22;40.13;;;;;;;23.23;32.04;101028.97;5073213;28;20025;-47
2022/12/03 17:34:48;;;;;;;57.50;38.13;;;;;;;23.30;32.23;101038.69;5074044;28;20144;-46
2022/12/03 17:37:15;;;;;;;54.45;37.00;;;;;;;23.26;32.02;101034.25;5073150;28;20094;-49
2022/12/03 17:39:42;;;;;;;52.25;35.88;;;;;;;23.27;32.29;101034.25;5074756;28;20016;-53
2022/12/03 17:42:10;;;;;;;47.70;31.90;;;;;;;23.27;32.09;101034.25;5072406;28;20107;-46
2022/12/03 17:44:37;;;;;;;48.15;31.63;;;;;;;23.33;31.59;101030.91;5074259;28;20488;-47
2022/12/03 17:47:06;;;;;;;42.53;30.13;;;;;;;23.30;31.89;101028.22;5073285;28;20025;-46
2022/12/03 17:49:33;;;;;;;37.25;27.67;;;;;;;23.31;31.98;101032.59;5074622;28;20028;-50
2022/12/03 17:52:01;;;;;;;34.92;25.90;;;;;;;23.32;32.29;101040.47;5072228;28;20044;-47
2022/12/03 17:54:28;;;;;;;36.00;25.75;;;;;;;23.33;31.91;101042.22;5074487;28;20036;-47
2022/12/03 17:56:56;;;;;;;34.90;23.67;;;;;;;23.33;32.16;101041.38;5074288;28;20033;-49
2022/12/03 17:59:23;;;;;;;36.10;22.58;;;;;;;23.30;31.73;101038.69;5074549;28;20465;-51
2022/12/03 18:01:51;;;;;;;28.80;21.15;;;;;;;23.32;32.23;101040.47;5074116;28;20044;-48
2022/12/03 18:04:18;;;;;;;28.05;21.13;;;;;;;23.33;31.97;101041.38;5073822;28;20546;-50
2022/12/03 18:06:45;;;;;;;24.70;19.08;;;;;;;23.35;32.36;101037.91;5074384;28;20124;-46
2022/12/03 18:09:14;;;;;;;26.83;18.45;;;;;;;23.38;32.38;101041.44;5072920;28;20024;-45
2022/12/03 18:11:41;;;;;;;25.75;17.88;;;;;;;23.40;32.24;101043.22;5073690;28;20024;-46
2022/12/03 18:14:11;;;;;;;25.05;17.70;;;;;;;23.41;32.31;101044.13;5073751;28;20036;-47
2022/12/03 18:16:40;;;;;;;23.70;16.90;;;;;;;23.44;31.70;101036.28;5073808;28;20017;-49
2022/12/03 18:19:08;;;;;;;21.83;15.90;;;;;;;23.45;31.72;101038.06;5072833;28;20500;-47
2022/12/03 18:21:37;;;;;;;20.42;14.73;;;;;;;23.40;31.78;101037.13;5073513;28;20032;-46
2022/12/03 18:24:04;;;;;;;19.48;14.35;;;;;;;23.43;31.89;101038.03;5073525;28;20021;-46
2022/12/03 18:26:34;;;;;;;19.55;13.93;;;;;;;23.42;32.06;101040.63;5072659;28;20029;-46
2022/12/03 18:29:01;;;;;;;21.77;12.85;;;;;;;23.45;31.82;101033.72;5073620;28;20028;-48
2022/12/03 18:31:29;;;;;;;18.13;12.48;;;;;;;23.41;31.94;101031.03;5073355;28;20032;-46
2022/12/03 18:33:56;;;;;;;17.38;11.77;;;;;;;23.44;31.88;101031.94;5073132;28;20044;-48
2022/12/03 18:36:31;;;;;;;14.55;10.20;;;;;;;23.42;32.36;101041.50;5073726;28;20060;-50
2022/12/03 18:38:59;;;;;;;;;;;;;;;23.46;32.21;101042.44;5073944;28;20086;-46
2022/12/03 18:41:28;;;;;;;17.48;10.60;;;;;;;23.47;31.76;101037.25;5073128;28;19913;-45
2022/12/03 18:43:55;;;;;;;12.98;10.10;;;;;;;23.50;31.81;101044.25;5073277;28;20485;-51
2022/12/03 18:46:24;;;;;;;16.40;9.60;;;;;;;23.46;31.94;101040.72;5073490;28;20050;-49
2022/12/03 18:48:52;;;;;;;14.52;8.95;;;;;;;23.50;32.02;101049.50;5073442;28;20039;-46
2022/12/03 18:51:23;;;;;;;13.38;9.93;;;;;;;23.47;31.82;101042.47;5072733;28;20035;-51
2022/12/03 18:53:51;;;;;;;13.05;10.35;;;;;;;23.50;32.04;101044.25;5072814;28;20124;-50
2022/12/03 18:56:18;;;;;;;12.15;9.05;;;;;;;23.47;32.38;101042.47;5073134;28;20388;-46
2022/12/03 18:58:45;;;;;;;12.23;9.55;;;;;;;23.50;32.09;101044.25;5073160;28;20035;-49
2022/12/03 19:01:17;;;;;;;14.35;9.70;;;;;;;23.48;32.12;101045.97;5072642;28;20033;-52
2022/12/03 19:03:44;;;;;;;17.50;11.07;;;;;;;23.45;31.91;101044.19;5072463;28;20029;-52
2022/12/03 19:06:19;;;;;;;19.90;12.52;;;;;;;23.48;32.07;101044.25;5072979;28;20078;-52
2022/12/03 19:08:52;;;;;;;57.63;24.83;;;;;;;23.50;32.24;101049.50;5073016;28;20466;-48